sensor_id;sensor_type;location;lat;lon;timestamp;temperature;humidity
55004;DHT22;40900;52.710;6.438;2022-11-04T00:01:46;10.50;99.90
55004;DHT22;40900;52.710;6.438;2022-11-04T00:04:13;10.50;99.90
55004;DHT22;40900;52.710;6.438;2022-11-04T00:06:40;10.50;99.90
55004;DHT22;40900;52.710;6.438;2022-11-04T00:09:08;10.40;99.90
55004;DHT22;40900;52.710;6.438;2022-11-04T00:11:34;10.50;99.90
55004;DHT22;40900;52.710;6.438;2022-11-04T00:14:18;10.50;99.90
55004;DHT22;40900;52.710;6.438;2022-11-04T00:16:44;10.50;99.90
55004;DHT22;40900;52.710;6.438;2022-11-04T00:19:29;10.40;99.90
55004;DHT22;40900;52.710;6.438;2022-11-04T00:22:15;10.40;99.90
55004;DHT22;40900;52.710;6.438;2022-11-04T00:24:59;10.40;99.90
55004;DHT22;40900;52.710;6.438;2022-11-04T00:27:44;10.40;99.90
55004;DHT22;40900;52.710;6.438;2022-11-04T00:30:28;10.40;99.90
55004;DHT22;40900;52.710;6.438;2022-11-04T00:32:54;10.40;99.90
55004;DHT22;40900;52.710;6.438;2022-11-04T00:35:38;10.40;99.90
55004;DHT22;40900;52.710;6.438;2022-11-04T00:38:04;10.40;99.90
55004;DHT22;40900;52.710;6.438;2022-11-04T00:40:30;10.40;99.90
55004;DHT22;40900;52.710;6.438;2022-11-04T00:42:55;10.30;99.90
55004;DHT22;40900;52.710;6.438;2022-11-04T00:45:21;10.40;99.90
55004;DHT22;40900;52.710;6.438;2022-11-04T00:47:46;10.40;99.90
55004;DHT22;40900;52.710;6.438;2022-11-04T00:50:12;10.40;99.90
55004;DHT22;40900;52.710;6.438;2022-11-04T00:52:38;10.30;99.90
55004;DHT22;40900;52.710;6.438;2022-11-04T00:55:04;10.30;99.90
55004;DHT22;40900;52.710;6.438;2022-11-04T00:57:30;10.40;99.90
55004;DHT22;40900;52.710;6.438;2022-11-04T00:59:56;10.30;99.90
55004;DHT22;40900;52.710;6.438;2022-11-04T01:02:22;10.30;99.90
55004;DHT22;40900;52.710;6.438;2022-11-04T01:04:47;10.30;99.90
55004;DHT22;40900;52.710;6.438;2022-11-04T01:07:13;10.30;99.90
55004;DHT22;40900;52.710;6.438;2022-11-04T01:09:39;10.30;99.90
55004;DHT22;40900;52.710;6.438;2022-11-04T01:12:04;10.30;99.90
55004;DHT22;40900;52.710;6.438;2022-11-04T01:14:30;10.30;99.90
55004;DHT22;40900;52.710;6.438;2022-11-04T01:16:56;10.30;99.90
55004;DHT22;40900;52.710;6.438;2022-11-04T01:19:22;10.30;99.90
55004;DHT22;40900;52.710;6.438;2022-11-04T01:21:51;10.30;99.90
55004;DHT22;40900;52.710;6.438;2022-11-04T01:24:17;10.20;99.90
55004;DHT22;40900;52.710;6.438;2022-11-04T01:26:43;10.20;99.90
55004;DHT22;40900;52.710;6.438;2022-11-04T01:29:09;10.20;99.90
55004;DHT22;40900;52.710;6.438;2022-11-04T01:31:35;10.20;99.90
55004;DHT22;40900;52.710;6.438;2022-11-04T01:34:01;10.20;99.90
55004;DHT22;40900;52.710;6.438;2022-11-04T01:36:27;10.30;99.90
55004;DHT22;40900;52.710;6.438;2022-11-04T01:38:56;10.30;99.90
55004;DHT22;40900;52.710;6.438;2022-11-04T01:41:25;10.30;99.90
55004;DHT22;40900;52.710;6.438;2022-11-04T01:43:58;10.30;99.90
55004;DHT22;40900;52.710;6.438;2022-11-04T01:46:31;10.40;99.90
55004;DHT22;40900;52.710;6.438;2022-11-04T01:51:44;10.30;99.90
55004;DHT22;40900;52.710;6.438;2022-11-04T01:54:11;10.30;99.90
55004;DHT22;40900;52.710;6.438;2022-11-04T01:56:38;10.30;99.90
55004;DHT22;40900;52.710;6.438;2022-11-04T01:59:09;10.40;99.90
55004;DHT22;40900;52.710;6.438;2022-11-04T02:01:35;10.40;99.90
55004;DHT22;40900;52.710;6.438;2022-11-04T02:04:01;10.40;99.90
55004;DHT22;40900;52.710;6.438;2022-11-04T02:06:46;10.40;99.90
55004;DHT22;40900;52.710;6.438;2022-11-04T02:09:13;10.40;99.90
55004;DHT22;40900;52.710;6.438;2022-11-04T02:11:38;10.40;99.90
55004;DHT22;40900;52.710;6.438;2022-11-04T02:14:22;10.40;99.90
55004;DHT22;40900;52.710;6.438;2022-11-04T02:16:48;10.40;99.90
55004;DHT22;40900;52.710;6.438;2022-11-04T02:27:47;10.40;99.90
55004;DHT22;40900;52.710;6.438;2022-11-04T02:30:21;10.30;99.90
55004;DHT22;40900;52.710;6.438;2022-11-04T02:33:28;10.30;99.90
55004;DHT22;40900;52.710;6.438;2022-11-04T02:36:04;10.30;99.90
55004;DHT22;40900;52.710;6.438;2022-11-04T02:38:52;10.30;99.90
55004;DHT22;40900;52.710;6.438;2022-11-04T02:46:58;10.30;99.90
55004;DHT22;40900;52.710;6.438;2022-11-04T02:49:33;10.30;99.90
55004;DHT22;40900;52.710;6.438;2022-11-04T02:52:18;10.30;99.90
55004;DHT22;40900;52.710;6.438;2022-11-04T02:54:59;10.20;99.90
55004;DHT22;40900;52.710;6.438;2022-11-04T02:57:34;10.20;99.90
55004;DHT22;40900;52.710;6.438;2022-11-04T03:00:08;10.20;99.90
55004;DHT22;40900;52.710;6.438;2022-11-04T03:05:19;10.10;99.90
55004;DHT22;40900;52.710;6.438;2022-11-04T03:07:47;10.00;99.90
55004;DHT22;40900;52.710;6.438;2022-11-04T03:10:27;10.00;99.90
55004;DHT22;40900;52.710;6.438;2022-11-04T03:15:50;9.90;99.90
55004;DHT22;40900;52.710;6.438;2022-11-04T03:20:48;9.90;99.90
55004;DHT22;40900;52.710;6.438;2022-11-04T03:23:15;9.90;99.90
55004;DHT22;40900;52.710;6.438;2022-11-04T03:25:44;9.90;99.90
55004;DHT22;40900;52.710;6.438;2022-11-04T03:28:33;9.80;99.90
55004;DHT22;40900;52.710;6.438;2022-11-04T03:31:03;9.80;99.90
55004;DHT22;40900;52.710;6.438;2022-11-04T03:33:47;9.70;99.90
55004;DHT22;40900;52.710;6.438;2022-11-04T03:36:13;9.70;99.90
55004;DHT22;40900;52.710;6.438;2022-11-04T03:38:39;9.70;99.90
55004;DHT22;40900;52.710;6.438;2022-11-04T03:41:13;9.70;99.90
55004;DHT22;40900;52.710;6.438;2022-11-04T03:43:40;9.60;99.90
55004;DHT22;40900;52.710;6.438;2022-11-04T03:46:06;9.60;99.90
55004;DHT22;40900;52.710;6.438;2022-11-04T03:48:32;9.60;99.90
55004;DHT22;40900;52.710;6.438;2022-11-04T03:50:58;9.60;99.90
55004;DHT22;40900;52.710;6.438;2022-11-04T03:53:25;9.60;99.90
55004;DHT22;40900;52.710;6.438;2022-11-04T04:03:51;9.60;99.90
55004;DHT22;40900;52.710;6.438;2022-11-04T04:06:27;9.60;99.90
55004;DHT22;40900;52.710;6.438;2022-11-04T04:12:28;9.50;99.90
55004;DHT22;40900;52.710;6.438;2022-11-04T04:15:02;9.50;99.90
55004;DHT22;40900;52.710;6.438;2022-11-04T04:17:38;9.50;99.90
55004;DHT22;40900;52.710;6.438;2022-11-04T04:20:14;9.60;99.90
55004;DHT22;40900;52.710;6.438;2022-11-04T04:22:51;9.50;99.90
55004;DHT22;40900;52.710;6.438;2022-11-04T04:25:18;9.50;99.90
55004;DHT22;40900;52.710;6.438;2022-11-04T04:28:04;9.60;99.90
55004;DHT22;40900;52.710;6.438;2022-11-04T04:30:30;9.50;99.90
55004;DHT22;40900;52.710;6.438;2022-11-04T04:33:06;9.50;99.90
55004;DHT22;40900;52.710;6.438;2022-11-04T04:35:39;9.60;99.90
55004;DHT22;40900;52.710;6.438;2022-11-04T04:38:19;9.50;99.90
55004;DHT22;40900;52.710;6.438;2022-11-04T04:41:09;9.60;99.90
55004;DHT22;40900;52.710;6.438;2022-11-04T04:43:56;9.60;99.90
55004;DHT22;40900;52.710;6.438;2022-11-04T04:46:42;9.60;99.90
55004;DHT22;40900;52.710;6.438;2022-11-04T04:49:09;9.60;99.90
55004;DHT22;40900;52.710;6.438;2022-11-04T04:51:39;9.50;99.90
55004;DHT22;40900;52.710;6.438;2022-11-04T04:54:06;9.60;99.90
55004;DHT22;40900;52.710;6.438;2022-11-04T04:56:31;9.50;99.90
55004;DHT22;40900;52.710;6.438;2022-11-04T04:58:57;9.50;99.90
55004;DHT22;40900;52.710;6.438;2022-11-04T05:01:23;9.60;99.90
55004;DHT22;40900;52.710;6.438;2022-11-04T05:03:48;9.50;99.90
55004;DHT22;40900;52.710;6.438;2022-11-04T05:06:14;9.50;99.90
55004;DHT22;40900;52.710;6.438;2022-11-04T05:08:40;9.50;99.90
55004;DHT22;40900;52.710;6.438;2022-11-04T05:11:06;9.40;99.90
55004;DHT22;40900;52.710;6.438;2022-11-04T05:13:31;9.40;99.90
55004;DHT22;40900;52.710;6.438;2022-11-04T05:16:06;9.30;99.90
55004;DHT22;40900;52.710;6.438;2022-11-04T05:18:33;9.30;99.90
55004;DHT22;40900;52.710;6.438;2022-11-04T05:21:03;9.20;99.90
55004;DHT22;40900;52.710;6.438;2022-11-04T05:23:29;9.20;99.90
55004;DHT22;40900;52.710;6.438;2022-11-04T05:25:57;9.20;99.90
55004;DHT22;40900;52.710;6.438;2022-11-04T05:28:23;9.20;99.90
55004;DHT22;40900;52.710;6.438;2022-11-04T05:30:48;9.20;99.90
55004;DHT22;40900;52.710;6.438;2022-11-04T05:33:14;9.20;99.90
55004;DHT22;40900;52.710;6.438;2022-11-04T05:35:40;9.20;99.90
55004;DHT22;40900;52.710;6.438;2022-11-04T05:38:05;9.20;99.90
55004;DHT22;40900;52.710;6.438;2022-11-04T05:40:31;9.10;99.90
55004;DHT22;40900;52.710;6.438;2022-11-04T05:42:58;9.10;99.90
55004;DHT22;40900;52.710;6.438;2022-11-04T05:45:24;9.00;99.90
55004;DHT22;40900;52.710;6.438;2022-11-04T05:47:57;9.00;99.90
55004;DHT22;40900;52.710;6.438;2022-11-04T05:50:23;8.90;99.90
55004;DHT22;40900;52.710;6.438;2022-11-04T05:52:48;8.90;99.90
55004;DHT22;40900;52.710;6.438;2022-11-04T05:55:14;8.90;99.90
55004;DHT22;40900;52.710;6.438;2022-11-04T05:57:40;8.80;99.90
55004;DHT22;40900;52.710;6.438;2022-11-04T06:00:06;8.90;99.90
55004;DHT22;40900;52.710;6.438;2022-11-04T06:02:32;8.90;99.90
55004;DHT22;40900;52.710;6.438;2022-11-04T06:04:57;8.90;99.90
55004;DHT22;40900;52.710;6.438;2022-11-04T06:07:23;8.80;99.90
55004;DHT22;40900;52.710;6.438;2022-11-04T06:09:49;8.80;99.90
55004;DHT22;40900;52.710;6.438;2022-11-04T06:12:15;8.70;99.90
55004;DHT22;40900;52.710;6.438;2022-11-04T06:14:42;8.70;99.90
55004;DHT22;40900;52.710;6.438;2022-11-04T06:17:21;8.70;99.90
55004;DHT22;40900;52.710;6.438;2022-11-04T06:19:47;8.60;99.90
55004;DHT22;40900;52.710;6.438;2022-11-04T06:22:16;8.60;99.90
55004;DHT22;40900;52.710;6.438;2022-11-04T06:24:42;8.60;99.90
55004;DHT22;40900;52.710;6.438;2022-11-04T06:27:08;8.60;99.90
55004;DHT22;40900;52.710;6.438;2022-11-04T06:29:34;8.60;99.90
55004;DHT22;40900;52.710;6.438;2022-11-04T06:32:16;8.50;99.90
55004;DHT22;40900;52.710;6.438;2022-11-04T06:34:42;8.60;99.90
55004;DHT22;40900;52.710;6.438;2022-11-04T06:37:08;8.50;99.90
55004;DHT22;40900;52.710;6.438;2022-11-04T06:39:35;8.50;99.90
55004;DHT22;40900;52.710;6.438;2022-11-04T06:42:00;8.50;99.90
55004;DHT22;40900;52.710;6.438;2022-11-04T06:44:26;8.50;99.90
55004;DHT22;40900;52.710;6.438;2022-11-04T06:46:52;8.50;99.90
55004;DHT22;40900;52.710;6.438;2022-11-04T06:49:20;8.60;99.90
55004;DHT22;40900;52.710;6.438;2022-11-04T06:51:46;8.60;99.90
55004;DHT22;40900;52.710;6.438;2022-11-04T06:54:13;8.50;99.90
55004;DHT22;40900;52.710;6.438;2022-11-04T06:56:40;8.50;99.90
55004;DHT22;40900;52.710;6.438;2022-11-04T06:59:07;8.50;99.90
55004;DHT22;40900;52.710;6.438;2022-11-04T07:01:35;8.50;99.90
55004;DHT22;40900;52.710;6.438;2022-11-04T07:04:01;8.50;99.90
55004;DHT22;40900;52.710;6.438;2022-11-04T07:06:28;8.60;99.90
55004;DHT22;40900;52.710;6.438;2022-11-04T07:08:56;8.60;99.90
55004;DHT22;40900;52.710;6.438;2022-11-04T07:11:22;8.60;99.90
55004;DHT22;40900;52.710;6.438;2022-11-04T07:13:49;8.60;99.90
55004;DHT22;40900;52.710;6.438;2022-11-04T07:16:16;8.70;99.90
55004;DHT22;40900;52.710;6.438;2022-11-04T07:18:42;8.70;99.90
55004;DHT22;40900;52.710;6.438;2022-11-04T07:21:08;8.80;99.90
55004;DHT22;40900;52.710;6.438;2022-11-04T07:23:34;8.80;99.90
55004;DHT22;40900;52.710;6.438;2022-11-04T07:26:01;8.80;99.90
55004;DHT22;40900;52.710;6.438;2022-11-04T07:28:27;8.80;99.90
55004;DHT22;40900;52.710;6.438;2022-11-04T07:30:57;8.80;99.90
55004;DHT22;40900;52.710;6.438;2022-11-04T07:33:24;8.90;99.90
55004;DHT22;40900;52.710;6.438;2022-11-04T07:35:50;8.90;99.90
55004;DHT22;40900;52.710;6.438;2022-11-04T07:38:17;8.90;99.90
55004;DHT22;40900;52.710;6.438;2022-11-04T07:40:43;8.90;99.90
55004;DHT22;40900;52.710;6.438;2022-11-04T07:43:09;9.00;99.90
55004;DHT22;40900;52.710;6.438;2022-11-04T07:45:34;9.00;99.90
55004;DHT22;40900;52.710;6.438;2022-11-04T07:48:00;9.00;99.90
55004;DHT22;40900;52.710;6.438;2022-11-04T07:50:26;9.10;99.90
55004;DHT22;40900;52.710;6.438;2022-11-04T07:52:52;9.10;99.90
55004;DHT22;40900;52.710;6.438;2022-11-04T07:55:18;9.10;99.90
55004;DHT22;40900;52.710;6.438;2022-11-04T07:57:45;9.10;99.90
55004;DHT22;40900;52.710;6.438;2022-11-04T08:00:11;9.10;99.90
55004;DHT22;40900;52.710;6.438;2022-11-04T08:02:37;9.20;99.90
55004;DHT22;40900;52.710;6.438;2022-11-04T08:05:03;9.20;99.90
55004;DHT22;40900;52.710;6.438;2022-11-04T08:07:31;9.30;99.90
55004;DHT22;40900;52.710;6.438;2022-11-04T08:09:56;9.30;99.90
55004;DHT22;40900;52.710;6.438;2022-11-04T08:12:22;9.40;99.90
55004;DHT22;40900;52.710;6.438;2022-11-04T08:14:49;9.40;99.90
55004;DHT22;40900;52.710;6.438;2022-11-04T08:17:15;9.40;99.90
55004;DHT22;40900;52.710;6.438;2022-11-04T08:19:41;9.40;99.90
55004;DHT22;40900;52.710;6.438;2022-11-04T08:22:07;9.50;99.90
55004;DHT22;40900;52.710;6.438;2022-11-04T08:24:33;9.50;99.90
55004;DHT22;40900;52.710;6.438;2022-11-04T08:27:00;9.60;99.90
55004;DHT22;40900;52.710;6.438;2022-11-04T08:29:25;9.60;99.90
55004;DHT22;40900;52.710;6.438;2022-11-04T08:31:51;9.70;99.90
55004;DHT22;40900;52.710;6.438;2022-11-04T08:34:17;9.90;99.90
55004;DHT22;40900;52.710;6.438;2022-11-04T08:36:44;9.90;99.90
55004;DHT22;40900;52.710;6.438;2022-11-04T08:39:10;10.00;99.90
55004;DHT22;40900;52.710;6.438;2022-11-04T08:41:38;9.90;99.90
55004;DHT22;40900;52.710;6.438;2022-11-04T08:44:06;10.10;99.90
55004;DHT22;40900;52.710;6.438;2022-11-04T08:46:34;10.10;99.90
55004;DHT22;40900;52.710;6.438;2022-11-04T08:49:01;10.10;99.90
55004;DHT22;40900;52.710;6.438;2022-11-04T08:51:28;10.00;99.90
55004;DHT22;40900;52.710;6.438;2022-11-04T08:53:54;10.00;99.90
55004;DHT22;40900;52.710;6.438;2022-11-04T08:56:26;10.30;99.90
55004;DHT22;40900;52.710;6.438;2022-11-04T08:58:52;10.40;99.90
55004;DHT22;40900;52.710;6.438;2022-11-04T09:01:18;10.50;99.90
55004;DHT22;40900;52.710;6.438;2022-11-04T09:03:45;10.60;99.90
55004;DHT22;40900;52.710;6.438;2022-11-04T09:06:14;10.80;99.90
55004;DHT22;40900;52.710;6.438;2022-11-04T09:08:40;10.60;99.90
55004;DHT22;40900;52.710;6.438;2022-11-04T09:11:10;10.30;99.90
55004;DHT22;40900;52.710;6.438;2022-11-04T09:13:36;10.10;99.90
55004;DHT22;40900;52.710;6.438;2022-11-04T09:16:03;10.10;99.90
55004;DHT22;40900;52.710;6.438;2022-11-04T09:18:29;9.90;99.90
55004;DHT22;40900;52.710;6.438;2022-11-04T09:20:59;9.90;99.90
55004;DHT22;40900;52.710;6.438;2022-11-04T09:23:25;10.00;99.90
55004;DHT22;40900;52.710;6.438;2022-11-04T09:25:51;10.00;99.90
55004;DHT22;40900;52.710;6.438;2022-11-04T09:28:17;10.20;99.90
55004;DHT22;40900;52.710;6.438;2022-11-04T09:30:42;10.70;99.90
55004;DHT22;40900;52.710;6.438;2022-11-04T09:33:08;11.70;99.90
55004;DHT22;40900;52.710;6.438;2022-11-04T09:35:34;12.80;99.90
55004;DHT22;40900;52.710;6.438;2022-11-04T09:38:00;13.30;99.90
55004;DHT22;40900;52.710;6.438;2022-11-04T09:40:26;13.70;99.90
55004;DHT22;40900;52.710;6.438;2022-11-04T09:45:48;14.30;99.90
55004;DHT22;40900;52.710;6.438;2022-11-04T09:48:30;14.00;99.90
55004;DHT22;40900;52.710;6.438;2022-11-04T09:50:59;13.90;99.90
55004;DHT22;40900;52.710;6.438;2022-11-04T09:53:31;14.20;99.90
55004;DHT22;40900;52.710;6.438;2022-11-04T09:56:02;13.80;99.90
55004;DHT22;40900;52.710;6.438;2022-11-04T09:58:37;13.20;99.90
55004;DHT22;40900;52.710;6.438;2022-11-04T10:04:32;12.90;99.90
55004;DHT22;40900;52.710;6.438;2022-11-04T10:07:07;12.70;99.90
55004;DHT22;40900;52.710;6.438;2022-11-04T10:18:12;13.00;99.90
55004;DHT22;40900;52.710;6.438;2022-11-04T10:21:04;12.80;99.90
55004;DHT22;40900;52.710;6.438;2022-11-04T10:26:17;12.80;99.90
55004;DHT22;40900;52.710;6.438;2022-11-04T10:28:51;12.50;99.90
55004;DHT22;40900;52.710;6.438;2022-11-04T10:31:20;12.70;99.90
55004;DHT22;40900;52.710;6.438;2022-11-04T10:34:04;12.50;99.90
55004;DHT22;40900;52.710;6.438;2022-11-04T10:36:34;12.90;99.90
55004;DHT22;40900;52.710;6.438;2022-11-04T10:39:02;13.60;99.90
55004;DHT22;40900;52.710;6.438;2022-11-04T10:41:39;14.40;99.90
55004;DHT22;40900;52.710;6.438;2022-11-04T10:44:15;14.30;99.90
55004;DHT22;40900;52.710;6.438;2022-11-04T10:47:00;13.90;99.90
55004;DHT22;40900;52.710;6.438;2022-11-04T10:50:01;13.40;99.90
55004;DHT22;40900;52.710;6.438;2022-11-04T10:52:27;12.80;99.90
55004;DHT22;40900;52.710;6.438;2022-11-04T10:54:53;12.70;99.90
55004;DHT22;40900;52.710;6.438;2022-11-04T10:57:22;12.70;99.90
55004;DHT22;40900;52.710;6.438;2022-11-04T10:59:52;12.50;99.90
55004;DHT22;40900;52.710;6.438;2022-11-04T11:07:42;12.20;99.90
55004;DHT22;40900;52.710;6.438;2022-11-04T11:10:25;12.20;99.90
55004;DHT22;40900;52.710;6.438;2022-11-04T11:12:57;12.30;99.90
55004;DHT22;40900;52.710;6.438;2022-11-04T11:15:34;12.50;99.90
55004;DHT22;40900;52.710;6.438;2022-11-04T11:20:33;12.70;99.90
55004;DHT22;40900;52.710;6.438;2022-11-04T11:23:03;12.50;99.90
55004;DHT22;40900;52.710;6.438;2022-11-04T11:25:37;12.70;99.90
55004;DHT22;40900;52.710;6.438;2022-11-04T11:28:19;12.80;99.90
55004;DHT22;40900;52.710;6.438;2022-11-04T11:33:34;13.10;99.90
55004;DHT22;40900;52.710;6.438;2022-11-04T11:36:13;13.30;99.90
55004;DHT22;40900;52.710;6.438;2022-11-04T11:41:29;13.30;99.90
55004;DHT22;40900;52.710;6.438;2022-11-04T11:43:59;13.40;99.90
55004;DHT22;40900;52.710;6.438;2022-11-04T11:46:29;13.50;99.90
55004;DHT22;40900;52.710;6.438;2022-11-04T11:48:58;13.60;99.90
55004;DHT22;40900;52.710;6.438;2022-11-04T11:51:38;13.60;99.90
55004;DHT22;40900;52.710;6.438;2022-11-04T11:56:52;13.70;99.90
55004;DHT22;40900;52.710;6.438;2022-11-04T12:04:21;13.80;99.90
55004;DHT22;40900;52.710;6.438;2022-11-04T12:09:34;13.80;99.90
55004;DHT22;40900;52.710;6.438;2022-11-04T12:15:10;14.20;99.90
55004;DHT22;40900;52.710;6.438;2022-11-04T12:31:00;14.00;99.90
55004;DHT22;40900;52.710;6.438;2022-11-04T12:33:52;13.70;99.90
55004;DHT22;40900;52.710;6.438;2022-11-04T12:36:32;13.60;99.90
55004;DHT22;40900;52.710;6.438;2022-11-04T12:42:23;13.40;99.90
55004;DHT22;40900;52.710;6.438;2022-11-04T12:45:17;13.30;99.90
55004;DHT22;40900;52.710;6.438;2022-11-04T12:47:46;13.30;99.90
55004;DHT22;40900;52.710;6.438;2022-11-04T12:56:13;13.40;99.90
55004;DHT22;40900;52.710;6.438;2022-11-04T13:01:30;13.40;99.90
55004;DHT22;40900;52.710;6.438;2022-11-04T13:07:12;13.30;99.90
55004;DHT22;40900;52.710;6.438;2022-11-04T13:09:48;13.20;99.90
55004;DHT22;40900;52.710;6.438;2022-11-04T13:12:18;13.20;99.90
55004;DHT22;40900;52.710;6.438;2022-11-04T13:15:01;13.10;99.90
55004;DHT22;40900;52.710;6.438;2022-11-04T13:17:34;13.10;99.90
55004;DHT22;40900;52.710;6.438;2022-11-04T13:22:49;13.00;99.90
55004;DHT22;40900;52.710;6.438;2022-11-04T13:27:54;13.10;99.90
55004;DHT22;40900;52.710;6.438;2022-11-04T13:35:31;13.00;99.90
55004;DHT22;40900;52.710;6.438;2022-11-04T13:38:09;13.00;99.90
55004;DHT22;40900;52.710;6.438;2022-11-04T13:43:56;13.00;99.90
55004;DHT22;40900;52.710;6.438;2022-11-04T13:46:24;13.00;99.90
55004;DHT22;40900;52.710;6.438;2022-11-04T13:49:05;13.00;99.90
55004;DHT22;40900;52.710;6.438;2022-11-04T13:51:55;13.00;99.90
55004;DHT22;40900;52.710;6.438;2022-11-04T13:54:40;12.90;99.90
55004;DHT22;40900;52.710;6.438;2022-11-04T13:57:14;12.90;99.90
55004;DHT22;40900;52.710;6.438;2022-11-04T13:59:41;12.90;99.90
55004;DHT22;40900;52.710;6.438;2022-11-04T14:04:46;12.80;99.90
55004;DHT22;40900;52.710;6.438;2022-11-04T14:07:14;12.70;99.90
55004;DHT22;40900;52.710;6.438;2022-11-04T14:20:29;12.50;99.90
55004;DHT22;40900;52.710;6.438;2022-11-04T14:22:56;12.40;99.90
55004;DHT22;40900;52.710;6.438;2022-11-04T14:25:39;12.40;99.90
55004;DHT22;40900;52.710;6.438;2022-11-04T14:30:49;12.30;99.90
55004;DHT22;40900;52.710;6.438;2022-11-04T14:33:37;12.20;99.90
55004;DHT22;40900;52.710;6.438;2022-11-04T14:36:16;12.20;99.90
55004;DHT22;40900;52.710;6.438;2022-11-04T14:41:47;12.20;99.90
55004;DHT22;40900;52.710;6.438;2022-11-04T14:44:32;12.20;99.90
55004;DHT22;40900;52.710;6.438;2022-11-04T14:47:05;12.10;99.90
55004;DHT22;40900;52.710;6.438;2022-11-04T14:49:50;12.10;99.90
55004;DHT22;40900;52.710;6.438;2022-11-04T14:55:16;12.00;99.90
55004;DHT22;40900;52.710;6.438;2022-11-04T14:57:48;12.00;99.90
55004;DHT22;40900;52.710;6.438;2022-11-04T15:00:34;12.10;99.90
55004;DHT22;40900;52.710;6.438;2022-11-04T15:05:37;12.00;99.90
55004;DHT22;40900;52.710;6.438;2022-11-04T15:13:37;11.90;99.90
55004;DHT22;40900;52.710;6.438;2022-11-04T15:16:20;11.80;99.90
55004;DHT22;40900;52.710;6.438;2022-11-04T15:18:49;11.80;99.90
55004;DHT22;40900;52.710;6.438;2022-11-04T15:21:16;11.80;99.90
55004;DHT22;40900;52.710;6.438;2022-11-04T15:23:46;11.80;99.90
55004;DHT22;40900;52.710;6.438;2022-11-04T15:28:46;11.80;99.90
55004;DHT22;40900;52.710;6.438;2022-11-04T15:33:42;11.70;99.90
55004;DHT22;40900;52.710;6.438;2022-11-04T15:36:16;11.70;99.90
55004;DHT22;40900;52.710;6.438;2022-11-04T15:38:46;11.70;99.90
55004;DHT22;40900;52.710;6.438;2022-11-04T15:41:13;11.60;99.90
55004;DHT22;40900;52.710;6.438;2022-11-04T15:43:58;11.60;99.90
55004;DHT22;40900;52.710;6.438;2022-11-04T15:46:26;11.60;99.90
55004;DHT22;40900;52.710;6.438;2022-11-04T15:49:00;11.60;99.90
55004;DHT22;40900;52.710;6.438;2022-11-04T15:51:27;11.60;99.90
55004;DHT22;40900;52.710;6.438;2022-11-04T15:56:43;11.50;99.90
55004;DHT22;40900;52.710;6.438;2022-11-04T15:59:15;11.50;99.90
55004;DHT22;40900;52.710;6.438;2022-11-04T16:01:50;11.50;99.90
55004;DHT22;40900;52.710;6.438;2022-11-04T16:04:17;11.50;99.90
55004;DHT22;40900;52.710;6.438;2022-11-04T16:06:45;11.50;99.90
55004;DHT22;40900;52.710;6.438;2022-11-04T16:09:26;11.50;99.90
55004;DHT22;40900;52.710;6.438;2022-11-04T16:14:38;11.40;99.90
55004;DHT22;40900;52.710;6.438;2022-11-04T16:17:10;11.30;99.90
55004;DHT22;40900;52.710;6.438;2022-11-04T16:19:36;11.20;99.90
55004;DHT22;40900;52.710;6.438;2022-11-04T16:22:06;11.30;99.90
55004;DHT22;40900;52.710;6.438;2022-11-04T16:24:38;11.30;99.90
55004;DHT22;40900;52.710;6.438;2022-11-04T16:27:09;11.20;99.90
55004;DHT22;40900;52.710;6.438;2022-11-04T16:29:36;11.20;99.90
55004;DHT22;40900;52.710;6.438;2022-11-04T16:34:36;11.10;99.90
55004;DHT22;40900;52.710;6.438;2022-11-04T16:37:03;11.10;99.90
55004;DHT22;40900;52.710;6.438;2022-11-04T16:39:29;11.10;99.90
55004;DHT22;40900;52.710;6.438;2022-11-04T16:41:55;11.00;99.90
55004;DHT22;40900;52.710;6.438;2022-11-04T16:44:22;11.00;99.90
55004;DHT22;40900;52.710;6.438;2022-11-04T16:46:49;11.00;99.90
55004;DHT22;40900;52.710;6.438;2022-11-04T16:49:16;11.00;99.90
55004;DHT22;40900;52.710;6.438;2022-11-04T16:51:43;11.00;99.90
55004;DHT22;40900;52.710;6.438;2022-11-04T16:54:09;11.00;99.90
55004;DHT22;40900;52.710;6.438;2022-11-04T16:56:36;10.90;99.90
55004;DHT22;40900;52.710;6.438;2022-11-04T16:59:02;10.90;99.90
55004;DHT22;40900;52.710;6.438;2022-11-04T17:01:29;10.80;99.90
55004;DHT22;40900;52.710;6.438;2022-11-04T17:03:54;10.80;99.90
55004;DHT22;40900;52.710;6.438;2022-11-04T17:06:20;10.70;99.90
55004;DHT22;40900;52.710;6.438;2022-11-04T17:08:46;10.70;99.90
55004;DHT22;40900;52.710;6.438;2022-11-04T17:11:12;10.60;99.90
55004;DHT22;40900;52.710;6.438;2022-11-04T17:13:38;10.60;99.90
55004;DHT22;40900;52.710;6.438;2022-11-04T17:16:05;10.50;99.90
55004;DHT22;40900;52.710;6.438;2022-11-04T17:18:33;10.50;99.90
55004;DHT22;40900;52.710;6.438;2022-11-04T17:21:02;10.40;99.90
55004;DHT22;40900;52.710;6.438;2022-11-04T17:23:29;10.40;99.90
55004;DHT22;40900;52.710;6.438;2022-11-04T17:25:55;10.30;99.90
55004;DHT22;40900;52.710;6.438;2022-11-04T17:28:21;10.30;99.90
55004;DHT22;40900;52.710;6.438;2022-11-04T17:30:46;10.30;99.90
55004;DHT22;40900;52.710;6.438;2022-11-04T17:33:17;10.30;99.90
55004;DHT22;40900;52.710;6.438;2022-11-04T17:35:45;10.30;99.90
55004;DHT22;40900;52.710;6.438;2022-11-04T17:38:13;10.20;99.90
55004;DHT22;40900;52.710;6.438;2022-11-04T17:40:40;10.10;99.90
55004;DHT22;40900;52.710;6.438;2022-11-04T17:43:24;10.10;99.90
55004;DHT22;40900;52.710;6.438;2022-11-04T17:46:09;10.00;99.90
55004;DHT22;40900;52.710;6.438;2022-11-04T17:48:54;10.00;99.90
55004;DHT22;40900;52.710;6.438;2022-11-04T17:51:20;10.00;99.90
55004;DHT22;40900;52.710;6.438;2022-11-04T17:53:46;9.90;99.90
55004;DHT22;40900;52.710;6.438;2022-11-04T17:56:16;9.90;99.90
55004;DHT22;40900;52.710;6.438;2022-11-04T17:58:42;9.90;99.90
55004;DHT22;40900;52.710;6.438;2022-11-04T18:01:09;9.90;99.90
55004;DHT22;40900;52.710;6.438;2022-11-04T18:03:36;9.90;99.90
55004;DHT22;40900;52.710;6.438;2022-11-04T18:06:02;9.90;99.90
55004;DHT22;40900;52.710;6.438;2022-11-04T18:08:28;9.90;99.90
55004;DHT22;40900;52.710;6.438;2022-11-04T18:11:03;9.80;99.90
55004;DHT22;40900;52.710;6.438;2022-11-04T18:13:29;9.80;99.90
55004;DHT22;40900;52.710;6.438;2022-11-04T18:15:54;9.80;99.90
55004;DHT22;40900;52.710;6.438;2022-11-04T18:18:20;9.80;99.90
55004;DHT22;40900;52.710;6.438;2022-11-04T18:20:47;9.80;99.90
55004;DHT22;40900;52.710;6.438;2022-11-04T18:23:12;9.70;99.90
55004;DHT22;40900;52.710;6.438;2022-11-04T18:25:39;9.70;99.90
55004;DHT22;40900;52.710;6.438;2022-11-04T18:28:05;9.60;99.90
55004;DHT22;40900;52.710;6.438;2022-11-04T18:30:31;9.60;99.90
55004;DHT22;40900;52.710;6.438;2022-11-04T18:32:56;9.60;99.90
55004;DHT22;40900;52.710;6.438;2022-11-04T18:35:22;9.60;99.90
55004;DHT22;40900;52.710;6.438;2022-11-04T18:37:48;9.50;99.90
55004;DHT22;40900;52.710;6.438;2022-11-04T18:40:14;9.50;99.90
55004;DHT22;40900;52.710;6.438;2022-11-04T18:42:40;9.40;99.90